createdAt,value
2018-08-19T00:59:30.473Z,6.92
2018-08-19T03:05:55.891Z,6.60
2018-08-19T03:12:44.406Z,6.72
2018-08-19T03:15:13.127Z,6.60
2018-08-19T03:17:52.856Z,6.37
2018-08-19T03:20:20.601Z,6.87
2018-08-19T03:22:48.080Z,6.20
2018-08-19T03:25:15.565Z,6.03
2018-08-19T03:27:55.892Z,6.55
2018-08-19T03:31:00.836Z,6.50
2018-08-19T03:33:28.631Z,6.75
2018-08-19T03:35:56.195Z,6.28
2018-08-19T03:38:33.393Z,6.90
2018-08-19T03:41:01.000Z,6.58
2018-08-19T03:43:28.705Z,6.70
2018-08-19T03:45:59.641Z,6.45
2018-08-19T03:51:20.248Z,6.00
2018-08-19T03:53:47.911Z,5.95
2018-08-19T03:56:27.651Z,6.20
2018-08-19T03:59:11.970Z,6.35
2018-08-19T04:01:44.403Z,6.25
2018-08-19T04:04:28.611Z,5.83
2018-08-19T04:06:56.128Z,6.40
2018-08-19T04:09:24.295Z,5.95
2018-08-19T04:14:44.923Z,6.30
2018-08-19T04:17:13.373Z,5.90
2018-08-19T04:22:55.880Z,6.42
2018-08-19T04:25:29.030Z,6.22
2018-08-19T04:27:57.426Z,6.22
2018-08-19T04:30:25.060Z,6.37
2018-08-19T04:32:52.553Z,6.83
2018-08-19T04:35:20.068Z,6.30
2018-08-19T04:37:47.532Z,6.40
2018-08-19T04:40:29.252Z,6.30
2018-08-19T04:42:56.842Z,6.60
2018-08-19T04:45:24.319Z,6.40
2018-08-19T04:47:51.762Z,6.60
2018-08-19T04:50:19.192Z,6.70
2018-08-19T04:52:46.717Z,5.83
2018-08-19T04:55:14.217Z,6.10
2018-08-19T04:57:41.730Z,5.90
2018-08-19T05:00:09.443Z,6.00
2018-08-19T05:02:36.963Z,6.00
2018-08-19T05:07:53.986Z,6.10
2018-08-19T05:10:21.480Z,5.92
2018-08-19T05:15:36.197Z,5.83
2018-08-19T05:18:05.202Z,6.10
2018-08-19T05:20:32.612Z,6.12
2018-08-19T05:23:07.572Z,6.20
2018-08-19T05:25:56.018Z,6.10
2018-08-19T05:28:23.749Z,6.10
2018-08-19T05:31:06.355Z,5.62
2018-08-19T05:33:33.857Z,6.10
2018-08-19T05:36:08.906Z,6.10
2018-08-19T05:40:45.289Z,5.65
2018-08-19T05:43:13.107Z,5.85
2018-08-19T05:45:45.187Z,5.92
2018-08-19T05:54:08.191Z,6.25
2018-08-19T05:59:33.741Z,6.03
2018-08-19T06:02:02.274Z,5.50
2018-08-19T06:04:29.853Z,5.33
2018-08-19T06:07:08.625Z,5.87
2018-08-19T06:09:40.679Z,5.20
2018-08-19T06:12:08.957Z,5.95
2018-08-19T06:14:41.500Z,5.40
2018-08-19T06:17:09.248Z,5.80
2018-08-19T06:19:36.736Z,5.45
2018-08-19T06:22:18.276Z,5.62
2018-08-19T06:28:20.783Z,5.65
2018-08-19T06:30:50.834Z,5.70
2018-08-19T06:33:18.328Z,5.80
2018-08-19T06:35:47.557Z,6.20
2018-08-19T06:42:04.647Z,6.30
2018-08-19T06:44:32.138Z,6.37
2018-08-19T06:46:59.608Z,6.53
2018-08-19T06:49:27.107Z,6.25
2018-08-19T06:55:29.553Z,6.17
2018-08-19T06:58:19.568Z,6.40
2018-08-19T07:00:53.038Z,6.30
2018-08-19T07:03:23.714Z,6.03
2018-08-19T07:06:04.902Z,6.10
2018-08-19T07:08:32.561Z,6.12
2018-08-19T07:11:00.317Z,6.27
2018-08-19T07:17:10.200Z,5.80
2018-08-19T07:19:38.279Z,6.25
2018-08-19T07:41:36.956Z,5.08
2018-08-19T07:44:04.524Z,5.37
2018-08-19T07:46:32.010Z,4.70
2018-08-19T07:48:59.507Z,5.15
2018-08-19T07:51:27.363Z,5.12
2018-08-19T07:53:54.876Z,5.60
2018-08-19T07:56:22.489Z,5.20
2018-08-19T07:58:57.433Z,5.20
2018-08-19T08:01:24.927Z,5.17
2018-08-19T08:03:52.958Z,4.85
2018-08-19T08:06:20.648Z,5.47
2018-08-19T08:08:48.131Z,5.37
2018-08-19T08:11:15.825Z,5.15
2018-08-19T08:13:43.544Z,5.50
2018-08-19T08:16:10.945Z,5.90
2018-08-19T08:18:40.647Z,5.30
2018-08-19T08:21:13.176Z,5.45
2018-08-19T08:23:40.876Z,5.83
2018-08-19T08:26:10.901Z,5.62
2018-08-19T08:28:38.494Z,5.83
2018-08-19T08:31:08.778Z,6.50
2018-08-19T08:33:37.309Z,6.20
2018-08-19T08:36:07.461Z,5.40
2018-08-19T08:38:38.438Z,5.85
2018-08-19T08:43:52.534Z,5.12
2018-08-19T08:49:23.042Z,5.12
2018-08-19T08:51:53.068Z,5.55
2018-08-19T08:54:20.624Z,5.10
2018-08-19T08:56:48.155Z,4.97
2018-08-19T08:59:15.561Z,5.03
2018-08-19T09:01:43.136Z,5.50
2018-08-19T09:04:54.788Z,5.95
2018-08-19T09:07:22.450Z,4.80
2018-08-19T09:09:52.164Z,5.08
2018-08-19T09:12:29.808Z,4.90
2018-08-19T09:15:06.541Z,5.47
2018-08-19T09:17:39.838Z,5.27
2018-08-19T09:20:08.547Z,4.85
2018-08-19T09:22:36.028Z,4.62
2018-08-19T09:25:04.524Z,4.60
2018-08-19T09:27:40.563Z,4.72
2018-08-19T09:30:09.708Z,5.05
2018-08-19T09:32:56.700Z,5.10
2018-08-19T09:35:27.304Z,4.15
2018-08-19T09:38:06.849Z,5.00
2018-08-19T09:40:35.181Z,4.73
2018-08-19T09:43:04.433Z,4.50
2018-08-19T09:45:32.295Z,4.80
2018-08-19T09:48:04.931Z,5.00
2018-08-19T09:50:37.330Z,4.30
2018-08-19T09:53:05.676Z,4.12
2018-08-19T09:55:40.664Z,4.30
2018-08-19T09:58:11.926Z,3.87
2018-08-19T10:00:53.122Z,4.47
2018-08-19T10:03:28.658Z,4.15
2018-08-19T10:06:21.027Z,3.85
2018-08-19T10:11:28.851Z,3.50
2018-08-19T10:14:00.978Z,3.95
2018-08-19T10:16:38.950Z,3.27
2018-08-19T10:19:06.464Z,3.60
2018-08-19T10:21:34.356Z,3.45
2018-08-19T10:24:11.897Z,3.60
2018-08-19T10:26:39.522Z,4.00
2018-08-19T10:29:07.156Z,4.08
2018-08-19T10:31:34.556Z,3.98
2018-08-19T10:34:01.993Z,3.52
2018-08-19T10:36:29.486Z,3.52
2018-08-19T10:38:57.072Z,3.30
2018-08-19T10:41:24.426Z,3.20
2018-08-19T10:43:51.847Z,3.70
2018-08-19T10:46:19.342Z,3.35
2018-08-19T10:48:46.746Z,4.10
2018-08-19T10:51:14.139Z,3.50
2018-08-19T10:53:43.024Z,3.45
2018-08-19T10:56:10.453Z,3.35
2018-08-19T10:58:42.233Z,3.30
2018-08-19T11:01:09.707Z,3.20
2018-08-19T11:03:37.261Z,3.52
2018-08-19T11:06:04.882Z,3.08
2018-08-19T11:08:32.408Z,3.10
2018-08-19T11:10:59.894Z,2.98
2018-08-19T11:13:27.490Z,3.05
2018-08-19T11:15:56.007Z,2.90
2018-08-19T11:18:42.282Z,3.05
2018-08-19T11:21:25.154Z,3.20
2018-08-19T11:23:52.817Z,3.10
2018-08-19T11:26:20.409Z,3.47
2018-08-19T11:28:54.886Z,3.20
2018-08-19T11:31:28.190Z,3.08
2018-08-19T11:34:02.180Z,3.10
2018-08-19T11:36:40.145Z,3.70
2018-08-19T11:39:08.497Z,3.30
2018-08-19T11:41:35.993Z,3.52
2018-08-19T11:44:09.795Z,2.95
2018-08-19T11:46:37.892Z,3.67
2018-08-19T11:49:08.697Z,3.45
2018-08-19T11:51:46.213Z,3.20
2018-08-19T11:54:14.969Z,3.40
2018-08-19T11:56:52.651Z,3.20
2018-08-19T11:59:21.244Z,3.20
2018-08-19T12:01:50.602Z,3.17
2018-08-19T12:04:18.312Z,3.12
2018-08-19T12:06:49.805Z,3.35
2018-08-19T12:09:17.717Z,3.20
2018-08-19T12:11:45.520Z,3.02
2018-08-19T12:14:23.382Z,3.20
2018-08-19T12:16:53.897Z,2.75
2018-08-19T12:19:36.131Z,2.80
2018-08-19T12:22:05.144Z,2.95
2018-08-19T12:24:45.975Z,3.33
2018-08-19T12:32:13.845Z,3.05
2018-08-19T12:34:44.575Z,3.17
2018-08-19T12:37:13.165Z,3.20
2018-08-19T12:39:48.264Z,3.20
2018-08-19T12:42:15.823Z,3.15
2018-08-19T12:44:46.408Z,2.83
2018-08-19T12:47:14.978Z,10.00
2018-08-19T12:49:43.720Z,13.13
2018-08-19T12:52:14.033Z,5.95
2018-08-19T12:54:44.508Z,11.57
2018-08-19T12:57:12.503Z,7.97
2018-08-19T12:59:40.268Z,7.37
2018-08-19T13:02:08.163Z,6.62
2018-08-19T13:04:35.587Z,4.60
2018-08-19T13:07:08.383Z,4.00
2018-08-19T13:09:39.468Z,5.03
2018-08-19T13:12:08.185Z,4.50
2018-08-19T13:14:35.698Z,4.60
2018-08-19T13:17:10.452Z,4.12
2018-08-19T13:19:38.104Z,4.50
2018-08-19T13:22:05.578Z,4.45
2018-08-19T13:24:35.641Z,4.28
2018-08-19T13:27:03.537Z,4.25
2018-08-19T13:29:32.147Z,4.60
2018-08-19T13:32:00.030Z,4.00
2018-08-19T13:34:27.964Z,4.40
2018-08-19T13:36:56.157Z,4.33
2018-08-19T13:39:23.867Z,4.67
2018-08-19T13:41:51.665Z,4.30
2018-08-19T13:44:26.994Z,4.83
2018-08-19T13:47:04.609Z,4.80
2018-08-19T13:49:32.844Z,4.23
2018-08-19T13:52:24.004Z,4.60
2018-08-19T13:54:57.253Z,4.70
2018-08-19T13:57:25.705Z,4.10
2018-08-19T13:59:53.556Z,4.80
2018-08-19T14:02:26.270Z,4.30
2018-08-19T14:04:58.316Z,4.50
2018-08-19T14:07:26.025Z,4.67
2018-08-19T14:09:53.751Z,4.75
2018-08-19T14:12:25.999Z,4.75
2018-08-19T14:14:54.510Z,4.70
2018-08-19T14:17:21.946Z,4.65
2018-08-19T14:19:49.553Z,5.30
2018-08-19T14:22:17.146Z,5.03
2018-08-19T14:24:44.617Z,4.40
2018-08-19T14:27:12.072Z,4.50
2018-08-19T14:29:41.369Z,4.78
2018-08-19T14:32:24.318Z,6.30
2018-08-19T14:34:53.305Z,4.80
2018-08-19T14:37:20.793Z,5.10
2018-08-19T14:39:48.231Z,4.60
2018-08-19T14:42:15.695Z,4.33
2018-08-19T14:44:43.189Z,4.60
2018-08-19T14:47:10.624Z,4.45
2018-08-19T14:49:38.094Z,4.55
2018-08-19T14:52:05.523Z,4.45
2018-08-19T14:54:33.065Z,4.13
2018-08-19T14:57:00.506Z,3.90
2018-08-19T14:59:28.015Z,4.20
2018-08-19T15:01:55.415Z,4.10
2018-08-19T15:04:22.867Z,4.10
2018-08-19T15:06:50.227Z,3.80
2018-08-19T15:09:25.904Z,3.70
2018-08-19T15:11:54.550Z,3.90
2018-08-19T15:14:22.030Z,3.80
2018-08-19T15:16:51.666Z,3.90
2018-08-19T15:19:19.173Z,3.80
2018-08-19T15:22:01.339Z,3.70
2018-08-19T15:24:28.897Z,3.80
2018-08-19T15:26:56.223Z,4.00
2018-08-19T15:29:30.533Z,3.60
2018-08-19T15:32:00.167Z,4.08
2018-08-19T15:34:27.560Z,3.98
2018-08-19T15:36:55.219Z,3.42
2018-08-19T15:39:22.744Z,3.50
2018-08-19T15:41:50.552Z,3.63
2018-08-19T15:44:18.035Z,3.80
2018-08-19T15:46:46.176Z,3.65
2018-08-19T15:49:13.933Z,3.85
2018-08-19T15:51:41.572Z,3.50
2018-08-19T15:54:09.597Z,3.58
2018-08-19T15:56:37.178Z,3.35
2018-08-19T15:59:06.935Z,3.50
2018-08-19T16:01:34.542Z,3.25
2018-08-19T16:04:08.137Z,3.42
2018-08-19T16:06:36.111Z,3.42
2018-08-19T16:09:06.528Z,3.40
2018-08-19T16:11:34.033Z,3.27
2018-08-19T16:14:04.427Z,3.33
2018-08-19T16:16:31.831Z,3.40
2018-08-19T16:18:59.229Z,3.25
2018-08-19T16:21:26.602Z,3.60
2018-08-19T16:23:54.023Z,3.33
2018-08-19T16:26:21.437Z,3.40
2018-08-19T16:28:48.918Z,3.65
2018-08-19T16:31:16.743Z,3.45
2018-08-19T16:33:44.889Z,3.65
2018-08-19T16:36:12.746Z,3.70
2018-08-19T16:38:41.820Z,3.50
2018-08-19T16:41:09.375Z,3.55
2018-08-19T16:43:36.863Z,3.37
2018-08-19T16:46:04.324Z,3.12
2018-08-19T16:48:31.894Z,3.08
2018-08-19T16:50:59.406Z,3.20
2018-08-19T16:53:26.769Z,3.35
2018-08-19T16:55:54.295Z,3.67
2018-08-19T16:58:22.613Z,3.90
2018-08-19T17:00:50.072Z,3.47
2018-08-19T17:03:29.205Z,4.95
2018-08-19T17:05:56.758Z,3.60
2018-08-19T17:08:24.197Z,3.40
2018-08-19T17:10:51.712Z,3.52
2018-08-19T17:13:19.191Z,4.75
2018-08-19T17:15:46.687Z,5.10
2018-08-19T17:18:14.031Z,3.40
2018-08-19T17:20:41.995Z,4.03
2018-08-19T17:23:19.495Z,6.90
2018-08-19T17:25:46.921Z,4.90
2018-08-19T17:28:20.632Z,3.37
2018-08-19T17:30:49.500Z,3.33
2018-08-19T17:33:17.120Z,3.33
2018-08-19T17:35:45.741Z,3.20
2018-08-19T17:38:14.071Z,3.47
2018-08-19T17:40:41.498Z,3.12
2018-08-19T17:43:08.992Z,11.38
2018-08-19T17:45:36.878Z,3.30
2018-08-19T17:48:09.793Z,3.65
2018-08-19T17:50:37.789Z,3.40
2018-08-19T17:53:06.064Z,4.53
2018-08-19T17:55:34.851Z,3.75
2018-08-19T17:58:02.356Z,4.40
2018-08-19T18:00:29.855Z,3.47
2018-08-19T18:02:57.569Z,3.40
2018-08-19T18:05:32.829Z,3.40
2018-08-19T18:08:00.134Z,3.40
2018-08-19T18:10:27.514Z,3.67
2018-08-19T18:12:55.009Z,3.60
2018-08-19T18:15:22.425Z,3.80
2018-08-19T18:17:56.569Z,3.60
2018-08-19T18:20:26.917Z,3.83
2018-08-19T18:22:55.719Z,3.85
2018-08-19T18:25:23.673Z,3.50
2018-08-19T18:27:51.295Z,3.83
2018-08-19T18:30:20.662Z,3.70
2018-08-19T18:32:48.710Z,3.90
2018-08-19T18:35:16.011Z,3.92
2018-08-19T18:37:43.788Z,3.95
2018-08-19T18:40:17.079Z,3.65
2018-08-19T18:42:44.831Z,3.80
2018-08-19T18:45:13.238Z,4.08
2018-08-19T18:47:46.547Z,3.95
2018-08-19T18:50:14.363Z,4.00
2018-08-19T18:52:41.818Z,3.98
2018-08-19T18:55:09.564Z,4.60
2018-08-19T18:57:41.733Z,4.70
2018-08-19T19:00:10.735Z,4.40
2018-08-19T19:02:41.765Z,4.10
2018-08-19T19:05:49.069Z,4.00
2018-08-19T19:08:17.409Z,4.00
2018-08-19T19:10:54.099Z,3.83
2018-08-19T19:13:22.207Z,4.10
2018-08-19T19:15:49.702Z,4.53
2018-08-19T19:18:17.661Z,4.28
2018-08-19T19:20:50.812Z,4.00
2018-08-19T19:23:18.814Z,4.05
2018-08-19T19:25:46.247Z,4.35
2018-08-19T19:28:13.741Z,4.33
2018-08-19T19:30:41.284Z,4.60
2018-08-19T19:33:11.472Z,4.60
2018-08-19T19:35:38.998Z,5.08
2018-08-19T19:38:08.042Z,5.37
2018-08-19T19:40:35.614Z,4.50
2018-08-19T19:43:03.309Z,4.70
2018-08-19T19:45:44.733Z,4.58
2018-08-19T19:48:12.172Z,4.67
2018-08-19T19:50:39.965Z,4.65
2018-08-19T19:53:07.515Z,5.17
2018-08-19T19:55:36.067Z,4.97
2018-08-19T19:58:03.843Z,5.00
2018-08-19T20:00:47.677Z,4.75
2018-08-19T20:03:15.088Z,4.28
2018-08-19T20:05:42.562Z,4.70
2018-08-19T20:08:10.071Z,4.55
2018-08-19T20:10:37.440Z,4.50
2018-08-19T20:13:04.832Z,4.30
2018-08-19T20:15:32.223Z,4.10
2018-08-19T20:18:00.154Z,4.40
2018-08-19T20:20:27.728Z,4.37
2018-08-19T20:22:55.107Z,4.08
2018-08-19T20:25:22.576Z,4.03
2018-08-19T20:28:07.939Z,4.70
2018-08-19T20:30:36.574Z,4.55
2018-08-19T20:35:55.289Z,4.55
2018-08-19T20:38:22.936Z,4.85
2018-08-19T20:40:50.441Z,4.70
2018-08-19T20:43:19.499Z,5.03
2018-08-19T20:45:47.061Z,5.10
2018-08-19T20:48:16.485Z,5.00
2018-08-19T20:50:43.954Z,4.90
2018-08-19T20:53:11.295Z,5.00
2018-08-19T20:55:38.732Z,5.00
2018-08-19T20:58:06.226Z,4.93
2018-08-19T21:00:34.604Z,4.90
2018-08-19T21:03:02.131Z,4.55
2018-08-19T21:05:29.522Z,4.70
2018-08-19T21:08:07.308Z,4.95
2018-08-19T21:10:34.944Z,4.47
2018-08-19T21:13:02.372Z,4.37
2018-08-19T21:15:36.920Z,5.20
2018-08-19T21:18:04.891Z,4.85
2018-08-19T21:20:32.787Z,4.90
2018-08-19T21:23:00.244Z,4.90
2018-08-19T21:25:27.692Z,4.90
2018-08-19T21:27:55.227Z,4.80
2018-08-19T21:30:23.199Z,5.10
2018-08-19T21:32:50.719Z,5.00
2018-08-19T21:35:18.400Z,4.80
2018-08-19T21:37:46.027Z,4.95
2018-08-19T21:40:36.138Z,5.12
2018-08-19T21:43:03.531Z,4.75
2018-08-19T21:45:30.992Z,5.00
2018-08-19T21:47:58.382Z,4.80
2018-08-19T21:50:25.801Z,4.95
2018-08-19T21:53:07.158Z,5.08
2018-08-19T21:55:39.005Z,4.73
2018-08-19T21:58:06.627Z,4.67
2018-08-19T22:00:36.083Z,4.70
2018-08-19T22:03:09.190Z,4.85
2018-08-19T22:05:36.604Z,4.80
2018-08-19T22:08:04.596Z,4.90
2018-08-19T22:10:32.957Z,4.58
2018-08-19T22:13:00.338Z,5.15
2018-08-19T22:15:33.513Z,5.15
2018-08-19T22:18:01.059Z,5.27
2018-08-19T22:20:28.625Z,5.20
2018-08-19T22:22:56.067Z,5.58
2018-08-19T22:25:23.971Z,5.25
2018-08-19T22:27:51.396Z,5.65
2018-08-19T22:30:18.994Z,5.67
2018-08-19T22:32:46.363Z,5.62
2018-08-19T22:35:13.870Z,5.47
2018-08-19T22:37:41.310Z,5.97
2018-08-19T22:40:08.773Z,5.50
2018-08-19T22:42:36.150Z,5.80
2018-08-19T22:45:03.952Z,5.70
2018-08-19T22:47:31.477Z,5.65
2018-08-19T22:49:59.793Z,5.55
2018-08-19T22:52:27.139Z,5.67
2018-08-19T22:54:56.552Z,5.35
2018-08-19T22:57:24.539Z,5.30
2018-08-19T22:59:52.296Z,5.40
2018-08-19T23:02:19.801Z,5.40
2018-08-19T23:04:47.175Z,5.67
2018-08-19T23:07:14.621Z,5.50
2018-08-19T23:09:42.032Z,5.70
2018-08-19T23:12:09.473Z,5.70
2018-08-19T23:14:48.351Z,5.72
2018-08-19T23:17:15.798Z,5.50
2018-08-19T23:19:43.234Z,5.83
2018-08-19T23:22:10.643Z,5.75
2018-08-19T23:24:38.120Z,5.90
2018-08-19T23:27:05.625Z,6.00
2018-08-19T23:29:33.043Z,5.53
2018-08-19T23:32:00.490Z,5.50
2018-08-19T23:34:27.975Z,6.55
2018-08-19T23:36:55.343Z,7.20
2018-08-19T23:39:22.815Z,6.45
2018-08-19T23:41:50.240Z,6.25
2018-08-19T23:44:17.703Z,6.25
2018-08-19T23:46:45.165Z,6.30
2018-08-19T23:49:12.642Z,5.92
2018-08-19T23:51:40.141Z,5.97
2018-08-19T23:54:07.551Z,6.12
2018-08-19T23:56:35.087Z,5.85
2018-08-19T23:59:02.691Z,6.25
